createdAt,value
2023-03-13T00:03:31.923Z,985.67
2023-03-13T00:08:36.076Z,985.61
2023-03-13T00:13:40.250Z,985.54
2023-03-13T00:18:44.433Z,985.43
2023-03-13T00:23:48.568Z,985.40
2023-03-13T00:28:52.715Z,985.30
2023-03-13T00:33:56.882Z,985.18
2023-03-13T00:39:01.112Z,985.12
2023-03-13T00:44:05.238Z,985.02
2023-03-13T00:49:09.377Z,984.90
2023-03-13T00:54:13.524Z,984.74
2023-03-13T00:59:17.706Z,984.63
2023-03-13T01:04:19.995Z,984.44
2023-03-13T01:09:24.111Z,984.44
2023-03-13T01:14:26.391Z,984.18
2023-03-13T01:19:30.589Z,983.94
2023-03-13T01:24:34.736Z,983.68
2023-03-13T01:29:38.926Z,983.50
2023-03-13T01:34:41.177Z,983.44
2023-03-13T01:39:45.327Z,983.45
2023-03-13T01:44:49.474Z,983.28
2023-03-13T01:49:53.654Z,982.99
2023-03-13T01:54:57.818Z,982.62
2023-03-13T02:00:01.958Z,982.39
2023-03-13T02:05:06.142Z,982.12
2023-03-13T02:10:10.331Z,981.84
2023-03-13T02:15:14.461Z,981.48
2023-03-13T02:20:18.621Z,981.14
2023-03-13T02:25:22.810Z,980.86
2023-03-13T02:30:26.922Z,980.57
2023-03-13T02:35:31.141Z,980.16
2023-03-13T02:40:35.270Z,979.81
2023-03-13T02:45:39.391Z,979.57
2023-03-13T02:50:43.606Z,979.26
2023-03-13T02:55:47.768Z,979.08
2023-03-13T03:00:50.076Z,979.02
2023-03-13T03:05:54.207Z,978.91
2023-03-13T03:10:58.368Z,978.57
2023-03-13T03:16:02.564Z,978.40
2023-03-13T03:21:06.787Z,978.31
2023-03-13T03:26:10.832Z,978.14
2023-03-13T03:31:15.060Z,978.09
2023-03-13T03:36:19.157Z,977.90
2023-03-13T03:41:23.305Z,977.90
2023-03-13T03:46:27.440Z,977.57
2023-03-13T03:51:31.598Z,977.51
2023-03-13T03:56:35.814Z,977.24
2023-03-13T04:01:39.976Z,977.30
2023-03-13T04:06:44.129Z,977.21
2023-03-13T04:11:48.288Z,977.26
2023-03-13T04:16:52.491Z,977.30
2023-03-13T04:21:56.617Z,977.32
2023-03-13T04:27:00.766Z,977.25
2023-03-13T04:32:04.927Z,977.23
2023-03-13T04:37:09.099Z,977.06
2023-03-13T04:42:13.246Z,976.84
2023-03-13T04:47:15.547Z,976.74
2023-03-13T04:52:19.698Z,976.69
2023-03-13T04:57:21.918Z,976.52
2023-03-13T05:02:26.119Z,976.16
2023-03-13T05:07:30.289Z,976.07
2023-03-13T05:12:34.467Z,976.02
2023-03-13T05:17:38.593Z,975.83
2023-03-13T05:22:42.754Z,975.67
2023-03-13T05:27:46.900Z,975.65
2023-03-13T05:32:51.158Z,975.60
2023-03-13T05:37:55.225Z,975.56
2023-03-13T05:42:59.393Z,975.77
2023-03-13T05:48:03.559Z,975.70
2023-03-13T05:53:07.717Z,975.78
2023-03-13T05:58:11.921Z,975.67
2023-03-13T06:03:16.156Z,975.83
2023-03-13T06:08:21.808Z,975.57
2023-03-13T06:13:24.360Z,975.38
2023-03-13T06:18:28.533Z,975.29
2023-03-13T06:23:32.699Z,975.23
2023-03-13T06:28:36.826Z,975.24
2023-03-13T06:33:41.005Z,975.21
2023-03-13T06:38:45.151Z,975.58
2023-03-13T06:43:47.439Z,975.89
2023-03-13T06:48:51.588Z,975.93
2023-03-13T06:53:53.860Z,976.31
2023-03-13T06:58:59.506Z,976.34
2023-03-13T07:04:02.296Z,976.79
2023-03-13T07:09:06.355Z,977.02
2023-03-13T07:14:16.993Z,977.26
2023-03-13T07:19:14.662Z,977.60
2023-03-13T07:24:18.942Z,977.54
2023-03-13T07:29:23.009Z,977.73
2023-03-13T07:34:27.169Z,977.89
2023-03-13T07:39:31.350Z,977.95
2023-03-13T07:44:35.475Z,977.98
2023-03-13T07:49:39.637Z,978.05
2023-03-13T07:54:43.815Z,978.18
2023-03-13T07:59:48.046Z,978.21
2023-03-13T08:04:52.141Z,978.25
2023-03-13T08:09:56.283Z,978.33
2023-03-13T08:15:00.489Z,978.55
2023-03-13T08:20:04.583Z,978.55
2023-03-13T08:25:08.757Z,978.51
2023-03-13T08:30:13.002Z,978.58
2023-03-13T08:35:17.067Z,978.65
2023-03-13T08:40:19.337Z,978.77
2023-03-13T08:45:23.506Z,978.74
2023-03-13T08:50:25.838Z,978.94
2023-03-13T08:55:29.930Z,978.83
2023-03-13T09:00:34.109Z,978.90
2023-03-13T09:05:54.670Z,978.81
2023-03-13T09:10:42.489Z,978.84
2023-03-13T09:15:46.641Z,978.88
2023-03-13T09:20:50.732Z,978.77
2023-03-13T09:25:54.911Z,978.75
2023-03-13T09:30:59.113Z,978.73
2023-03-13T09:36:03.326Z,978.58
2023-03-13T09:41:07.366Z,978.71
2023-03-13T09:46:11.599Z,978.51
2023-03-13T09:51:15.730Z,978.41
2023-03-13T09:56:19.887Z,978.21
2023-03-13T10:01:24.065Z,977.90
2023-03-13T10:06:28.208Z,978.12
2023-03-13T10:11:32.322Z,978.15
2023-03-13T10:16:36.538Z,978.03
2023-03-13T10:21:40.691Z,977.98
2023-03-13T10:26:44.812Z,977.93
2023-03-13T10:31:49.034Z,978.20
2023-03-13T10:36:51.290Z,978.32
2023-03-13T10:41:55.422Z,978.15
2023-03-13T10:46:57.812Z,978.15
2023-03-13T10:52:01.857Z,978.06
2023-03-13T10:57:06.087Z,978.15
2023-03-13T11:02:10.225Z,978.06
2023-03-13T11:07:14.348Z,978.04
2023-03-13T11:12:18.458Z,977.81
2023-03-13T11:17:22.677Z,977.80
2023-03-13T11:22:26.873Z,977.74
2023-03-13T11:27:30.987Z,977.72
2023-03-13T11:32:35.137Z,977.39
2023-03-13T11:37:39.288Z,977.38
2023-03-13T11:42:43.417Z,977.22
2023-03-13T11:47:47.626Z,977.14
2023-03-13T11:52:51.827Z,976.94
2023-03-13T11:57:55.966Z,976.83
2023-03-13T12:03:00.123Z,976.89
2023-03-13T12:08:04.215Z,976.64
2023-03-13T12:13:08.426Z,976.61
2023-03-13T12:18:12.560Z,976.59
2023-03-13T12:23:16.758Z,976.42
2023-03-13T12:28:23.490Z,976.39
2023-03-13T12:33:24.101Z,976.37
2023-03-13T12:38:27.315Z,976.29
2023-03-13T12:43:31.473Z,976.27
2023-03-13T12:48:33.824Z,976.24
2023-03-13T12:53:38.019Z,976.12
2023-03-13T12:58:42.091Z,976.09
2023-03-13T13:03:46.243Z,976.05
2023-03-13T13:08:50.375Z,975.96
2023-03-13T13:13:54.529Z,975.76
2023-03-13T13:18:58.682Z,975.71
2023-03-13T13:24:02.865Z,975.81
2023-03-13T13:29:07.026Z,975.66
2023-03-13T13:34:11.162Z,975.39
2023-03-13T13:39:15.360Z,975.33
2023-03-13T13:44:19.496Z,975.43
2023-03-13T13:49:23.634Z,975.42
2023-03-13T13:54:27.792Z,975.37
2023-03-13T13:59:31.971Z,975.40
2023-03-13T14:04:36.203Z,975.25
2023-03-13T14:09:40.341Z,975.09
2023-03-13T14:14:44.452Z,975.12
2023-03-13T14:19:48.628Z,975.04
2023-03-13T14:24:52.776Z,975.00
2023-03-13T14:29:56.910Z,974.94
2023-03-13T14:34:59.180Z,974.87
2023-03-13T14:45:07.500Z,974.60
2023-03-13T14:50:09.787Z,974.50
2023-03-13T14:55:13.953Z,974.74
2023-03-13T15:00:18.100Z,974.57
2023-03-13T15:05:22.262Z,974.48
2023-03-13T15:10:28.427Z,974.35
2023-03-13T15:15:30.571Z,974.18
2023-03-13T15:20:34.721Z,974.20
2023-03-13T15:25:38.885Z,974.06
2023-03-13T15:30:43.047Z,974.19
2023-03-13T15:35:49.326Z,973.97
2023-03-13T15:40:51.375Z,973.90
2023-03-13T15:45:55.601Z,974.02
2023-03-13T15:50:59.705Z,973.78
2023-03-13T15:56:03.837Z,973.72
2023-03-13T16:01:08.016Z,973.53
2023-03-13T16:06:12.216Z,973.50
2023-03-13T16:11:16.361Z,973.41
2023-03-13T16:16:20.617Z,973.12
2023-03-13T16:21:24.665Z,973.08
2023-03-13T16:26:28.845Z,973.15
2023-03-13T16:31:33.049Z,973.12
2023-03-13T16:36:35.384Z,973.11
2023-03-13T16:41:39.397Z,973.16
2023-03-13T16:46:42.383Z,973.05
2023-03-13T16:51:45.855Z,972.98
2023-03-13T16:56:49.982Z,973.02
2023-03-13T17:01:54.191Z,972.97
2023-03-13T17:06:58.306Z,973.07
2023-03-13T17:12:02.462Z,973.12
2023-03-13T17:17:06.615Z,973.12
2023-03-13T17:22:10.769Z,973.13
2023-03-13T17:27:14.986Z,973.18
2023-03-13T17:32:19.104Z,973.13
2023-03-13T17:37:23.291Z,973.27
2023-03-13T17:42:27.416Z,973.26
2023-03-13T17:47:31.639Z,973.14
2023-03-13T17:52:35.759Z,973.16
2023-03-13T17:57:39.906Z,973.15
2023-03-13T18:02:44.113Z,973.01
2023-03-13T18:07:48.212Z,973.03
2023-03-13T18:12:52.371Z,972.97
2023-03-13T18:17:56.576Z,972.88
2023-03-13T18:23:00.936Z,972.87
2023-03-13T18:28:04.846Z,972.87
2023-03-13T18:33:07.164Z,973.09
2023-03-13T18:38:11.327Z,972.97
2023-03-13T18:43:13.598Z,972.85
2023-03-13T18:48:17.757Z,972.84
2023-03-13T18:53:21.875Z,972.98
2023-03-13T19:03:30.202Z,973.12
2023-03-13T19:08:34.396Z,973.16
2023-03-13T19:13:38.577Z,973.07
2023-03-13T19:18:42.690Z,973.11
2023-03-13T19:23:46.937Z,973.00
2023-03-13T19:28:50.995Z,973.01
2023-03-13T19:33:55.178Z,972.86
2023-03-13T19:38:59.373Z,972.90
2023-03-13T19:44:03.482Z,972.77
2023-03-13T19:49:07.645Z,972.59
2023-03-13T19:54:11.847Z,972.51
2023-03-13T19:59:16.004Z,972.22
2023-03-13T20:04:20.169Z,972.22
2023-03-13T20:09:24.330Z,972.31
2023-03-13T20:14:28.463Z,972.43
2023-03-13T20:19:32.660Z,972.34
2023-03-13T20:24:36.761Z,972.35
2023-03-13T20:29:41.072Z,972.47
2023-03-13T20:34:43.245Z,972.53
2023-03-13T20:39:47.392Z,972.47
2023-03-13T20:44:49.649Z,972.59
2023-03-13T20:49:53.832Z,972.67
2023-03-13T20:54:57.972Z,972.58
2023-03-13T21:00:02.105Z,972.54
2023-03-13T21:05:06.338Z,972.50
2023-03-13T21:10:10.489Z,972.49
2023-03-13T21:15:14.613Z,972.56
2023-03-13T21:20:18.765Z,972.56
2023-03-13T21:25:22.941Z,972.58
2023-03-13T21:30:27.132Z,972.48
2023-03-13T21:35:31.284Z,972.29
2023-03-13T21:40:35.410Z,972.19
2023-03-13T21:45:39.590Z,972.14
2023-03-13T21:50:43.744Z,971.86
2023-03-13T21:55:47.923Z,971.88
2023-03-13T22:00:52.095Z,972.12
2023-03-13T22:05:56.223Z,972.08
2023-03-13T22:11:00.397Z,972.30
2023-03-13T22:16:04.508Z,972.43
2023-03-13T22:21:08.745Z,972.47
2023-03-13T22:26:12.887Z,972.69
2023-03-13T22:31:15.144Z,972.78
2023-03-13T22:36:19.330Z,972.82
2023-03-13T22:41:21.585Z,972.84
2023-03-13T22:46:25.717Z,973.00
2023-03-13T22:51:30.915Z,972.64
2023-03-13T22:56:34.049Z,972.68
2023-03-13T23:01:38.215Z,972.47
2023-03-13T23:06:42.348Z,972.42
2023-03-13T23:11:46.525Z,972.24
2023-03-13T23:16:50.789Z,972.04
2023-03-13T23:21:54.836Z,972.35
2023-03-13T23:26:58.992Z,972.22
2023-03-13T23:32:03.216Z,972.02
2023-03-13T23:37:07.317Z,972.48
2023-03-13T23:42:11.456Z,972.22
2023-03-13T23:47:15.672Z,972.26
2023-03-13T23:52:19.813Z,972.05
2023-03-13T23:57:25.942Z,971.91
